sensor_id;sensor_type;location;lat;lon;timestamp;pressure;altitude;pressure_sealevel;temperature;humidity
4449;BME280;2237;51.870;6.160;2023-09-30T00:00:55;102342.19;;;15.60;100.00
4449;BME280;2237;51.870;6.160;2023-09-30T00:03:21;102330.75;;;15.63;100.00
4449;BME280;2237;51.870;6.160;2023-09-30T00:05:48;102333.38;;;15.63;100.00
4449;BME280;2237;51.870;6.160;2023-09-30T00:08:15;102332.44;;;15.67;100.00
4449;BME280;2237;51.870;6.160;2023-09-30T00:10:41;102326.25;;;15.69;100.00
4449;BME280;2237;51.870;6.160;2023-09-30T00:13:08;102341.16;;;15.69;100.00
4449;BME280;2237;51.870;6.160;2023-09-30T00:15:34;102354.22;;;15.72;100.00
4449;BME280;2237;51.870;6.160;2023-09-30T00:18:01;102344.53;;;15.74;100.00
4449;BME280;2237;51.870;6.160;2023-09-30T00:20:28;102331.47;;;15.71;100.00
4449;BME280;2237;51.870;6.160;2023-09-30T00:22:55;102322.69;;;15.72;100.00
4449;BME280;2237;51.870;6.160;2023-09-30T00:25:21;102326.19;;;15.72;100.00
4449;BME280;2237;51.870;6.160;2023-09-30T00:27:48;102352.41;;;15.74;100.00
4449;BME280;2237;51.870;6.160;2023-09-30T00:30:14;102355.09;;;15.72;100.00
4449;BME280;2237;51.870;6.160;2023-09-30T00:32:41;102347.16;;;15.74;100.00
4449;BME280;2237;51.870;6.160;2023-09-30T00:35:08;102359.50;;;15.70;100.00
4449;BME280;2237;51.870;6.160;2023-09-30T00:37:38;102354.22;;;15.70;100.00
4449;BME280;2237;51.870;6.160;2023-09-30T00:40:05;102352.47;;;15.71;100.00
4449;BME280;2237;51.870;6.160;2023-09-30T00:42:32;102335.03;;;15.68;100.00
4449;BME280;2237;51.870;6.160;2023-09-30T00:44:59;102345.63;;;15.64;100.00
4449;BME280;2237;51.870;6.160;2023-09-30T00:47:25;102350.03;;;15.62;100.00
4449;BME280;2237;51.870;6.160;2023-09-30T00:49:52;102348.31;;;15.61;100.00
4449;BME280;2237;51.870;6.160;2023-09-30T00:52:19;102350.94;;;15.61;100.00
4449;BME280;2237;51.870;6.160;2023-09-30T00:54:47;102355.38;;;15.56;100.00
4449;BME280;2237;51.870;6.160;2023-09-30T00:57:14;102355.44;;;15.53;100.00
4449;BME280;2237;51.870;6.160;2023-09-30T00:59:41;102357.28;;;15.48;100.00
4449;BME280;2237;51.870;6.160;2023-09-30T01:02:07;102366.94;;;15.47;100.00
4449;BME280;2237;51.870;6.160;2023-09-30T01:04:34;102369.63;;;15.43;100.00
4449;BME280;2237;51.870;6.160;2023-09-30T01:07:01;102354.00;;;15.35;100.00
4449;BME280;2237;51.870;6.160;2023-09-30T01:09:28;102376.66;;;15.41;100.00
4449;BME280;2237;51.870;6.160;2023-09-30T01:11:54;102378.38;;;15.42;100.00
4449;BME280;2237;51.870;6.160;2023-09-30T01:14:28;102388.88;;;15.42;100.00
4449;BME280;2237;51.870;6.160;2023-09-30T01:16:55;102387.22;;;15.38;100.00
4449;BME280;2237;51.870;6.160;2023-09-30T01:19:22;102373.31;;;15.31;100.00
4449;BME280;2237;51.870;6.160;2023-09-30T01:21:55;102381.19;;;15.29;100.00
4449;BME280;2237;51.870;6.160;2023-09-30T01:24:29;102384.78;;;15.25;100.00
4449;BME280;2237;51.870;6.160;2023-09-30T01:26:56;102383.97;;;15.23;100.00
4449;BME280;2237;51.870;6.160;2023-09-30T01:29:23;102379.59;;;15.21;100.00
4449;BME280;2237;51.870;6.160;2023-09-30T01:31:52;102384.06;;;15.17;100.00
4449;BME280;2237;51.870;6.160;2023-09-30T01:34:18;102383.19;;;15.15;100.00
4449;BME280;2237;51.870;6.160;2023-09-30T01:36:45;102375.31;;;15.15;100.00
4449;BME280;2237;51.870;6.160;2023-09-30T01:39:11;102384.25;;;15.05;100.00
4449;BME280;2237;51.870;6.160;2023-09-30T01:41:38;102395.72;;;15.00;100.00
4449;BME280;2237;51.870;6.160;2023-09-30T01:44:06;102405.28;;;15.01;100.00
4449;BME280;2237;51.870;6.160;2023-09-30T01:46:33;102414.03;;;15.01;100.00
4449;BME280;2237;51.870;6.160;2023-09-30T01:48:59;102416.66;;;15.03;100.00
4449;BME280;2237;51.870;6.160;2023-09-30T01:51:26;102404.38;;;15.05;100.00
4449;BME280;2237;51.870;6.160;2023-09-30T01:53:54;102400.09;;;14.99;100.00
4449;BME280;2237;51.870;6.160;2023-09-30T01:56:21;102404.47;;;14.99;100.00
4449;BME280;2237;51.870;6.160;2023-09-30T01:58:48;102403.59;;;14.98;100.00
4449;BME280;2237;51.870;6.160;2023-09-30T02:01:14;102396.69;;;14.94;100.00
4449;BME280;2237;51.870;6.160;2023-09-30T02:03:41;102393.22;;;14.91;100.00
4449;BME280;2237;51.870;6.160;2023-09-30T02:06:08;102385.38;;;14.89;100.00
4449;BME280;2237;51.870;6.160;2023-09-30T02:08:35;102394.16;;;14.88;100.00
4449;BME280;2237;51.870;6.160;2023-09-30T02:11:03;102397.69;;;14.84;100.00
4449;BME280;2237;51.870;6.160;2023-09-30T02:13:33;102384.53;;;14.87;100.00
4449;BME280;2237;51.870;6.160;2023-09-30T02:16:01;102393.28;;;14.86;100.00
4449;BME280;2237;51.870;6.160;2023-09-30T02:18:28;102375.84;;;14.84;100.00
4449;BME280;2237;51.870;6.160;2023-09-30T02:20:54;102376.72;;;14.84;100.00
4449;BME280;2237;51.870;6.160;2023-09-30T02:23:20;102382.78;;;14.86;100.00
4449;BME280;2237;51.870;6.160;2023-09-30T02:25:47;102382.03;;;14.80;100.00
4449;BME280;2237;51.870;6.160;2023-09-30T02:28:13;102389.00;;;14.81;100.00
4449;BME280;2237;51.870;6.160;2023-09-30T02:30:40;102407.34;;;14.82;100.00
4449;BME280;2237;51.870;6.160;2023-09-30T02:33:07;102411.75;;;14.79;100.00
4449;BME280;2237;51.870;6.160;2023-09-30T02:35:33;102410.88;;;14.80;100.00
4449;BME280;2237;51.870;6.160;2023-09-30T02:38:00;102410.00;;;14.79;100.00
4449;BME280;2237;51.870;6.160;2023-09-30T02:40:26;102397.72;;;14.83;100.00
4449;BME280;2237;51.870;6.160;2023-09-30T02:42:53;102394.22;;;14.82;100.00
4449;BME280;2237;51.870;6.160;2023-09-30T02:45:20;102397.72;;;14.81;100.00
4449;BME280;2237;51.870;6.160;2023-09-30T02:47:47;102396.84;;;14.82;100.00
4449;BME280;2237;51.870;6.160;2023-09-30T02:50:13;102394.19;;;14.84;100.00
4449;BME280;2237;51.870;6.160;2023-09-30T02:52:40;102390.75;;;14.82;100.00
4449;BME280;2237;51.870;6.160;2023-09-30T02:55:10;102390.75;;;14.80;100.00
4449;BME280;2237;51.870;6.160;2023-09-30T02:57:37;102373.28;;;14.79;100.00
4449;BME280;2237;51.870;6.160;2023-09-30T03:00:09;102370.63;;;14.82;100.00
4449;BME280;2237;51.870;6.160;2023-09-30T03:03:00;102379.38;;;14.81;100.00
4449;BME280;2237;51.870;6.160;2023-09-30T03:05:28;102379.38;;;14.81;100.00
4449;BME280;2237;51.870;6.160;2023-09-30T03:07:56;102371.50;;;14.83;100.00
4449;BME280;2237;51.870;6.160;2023-09-30T03:10:23;102383.66;;;14.87;100.00
4449;BME280;2237;51.870;6.160;2023-09-30T03:12:53;102382.78;;;14.88;100.00
4449;BME280;2237;51.870;6.160;2023-09-30T03:15:20;102377.53;;;14.86;100.00
4449;BME280;2237;51.870;6.160;2023-09-30T03:17:47;102374.91;;;14.88;100.00
4449;BME280;2237;51.870;6.160;2023-09-30T03:20:18;102379.28;;;14.87;100.00
4449;BME280;2237;51.870;6.160;2023-09-30T03:22:47;102385.41;;;14.88;100.00
4449;BME280;2237;51.870;6.160;2023-09-30T03:25:15;102382.78;;;14.86;100.00
4449;BME280;2237;51.870;6.160;2023-09-30T03:27:44;102381.03;;;14.87;100.00
4449;BME280;2237;51.870;6.160;2023-09-30T03:30:13;102377.53;;;14.88;100.00
4449;BME280;2237;51.870;6.160;2023-09-30T03:32:42;102399.41;;;14.87;100.00
4449;BME280;2237;51.870;6.160;2023-09-30T03:35:10;102396.81;;;14.85;100.00
4449;BME280;2237;51.870;6.160;2023-09-30T03:37:37;102388.06;;;14.83;100.00
4449;BME280;2237;51.870;6.160;2023-09-30T03:40:04;102392.47;;;14.83;100.00
4449;BME280;2237;51.870;6.160;2023-09-30T03:42:42;102382.84;;;14.83;100.00
4449;BME280;2237;51.870;6.160;2023-09-30T03:45:10;102374.13;;;14.83;100.00
4449;BME280;2237;51.870;6.160;2023-09-30T03:47:37;102375.88;;;14.81;100.00
4449;BME280;2237;51.870;6.160;2023-09-30T03:50:05;102378.53;;;14.79;100.00
4449;BME280;2237;51.870;6.160;2023-09-30T03:52:33;102385.44;;;14.83;100.00
4449;BME280;2237;51.870;6.160;2023-09-30T03:55:00;102385.44;;;14.85;100.00
4449;BME280;2237;51.870;6.160;2023-09-30T03:57:32;102385.41;;;14.86;100.00
4449;BME280;2237;51.870;6.160;2023-09-30T04:00:00;102377.56;;;14.85;100.00
4449;BME280;2237;51.870;6.160;2023-09-30T04:02:27;102381.91;;;14.87;100.00
4449;BME280;2237;51.870;6.160;2023-09-30T04:04:53;102383.59;;;14.91;100.00
4449;BME280;2237;51.870;6.160;2023-09-30T04:07:22;102378.34;;;14.91;100.00
4449;BME280;2237;51.870;6.160;2023-09-30T04:09:54;102375.69;;;14.94;100.00
4449;BME280;2237;51.870;6.160;2023-09-30T04:12:22;102381.78;;;14.96;100.00
4449;BME280;2237;51.870;6.160;2023-09-30T04:14:50;102381.78;;;14.95;100.00
4449;BME280;2237;51.870;6.160;2023-09-30T04:17:16;102378.25;;;14.97;100.00
4449;BME280;2237;51.870;6.160;2023-09-30T04:19:43;102377.34;;;14.98;100.00
4449;BME280;2237;51.870;6.160;2023-09-30T04:22:09;102373.06;;;14.94;100.00
4449;BME280;2237;51.870;6.160;2023-09-30T04:24:36;102380.03;;;14.95;100.00
4449;BME280;2237;51.870;6.160;2023-09-30T04:27:02;102395.66;;;15.03;100.00
4449;BME280;2237;51.870;6.160;2023-09-30T04:29:32;102402.63;;;15.04;100.00
4449;BME280;2237;51.870;6.160;2023-09-30T04:31:58;102401.66;;;15.09;100.00
4449;BME280;2237;51.870;6.160;2023-09-30T04:34:25;102400.69;;;15.15;100.00
4449;BME280;2237;51.870;6.160;2023-09-30T04:36:51;102404.13;;;15.20;100.00
4449;BME280;2237;51.870;6.160;2023-09-30T04:39:18;102399.75;;;15.20;100.00
4449;BME280;2237;51.870;6.160;2023-09-30T04:41:45;102394.50;;;15.20;100.00
4449;BME280;2237;51.870;6.160;2023-09-30T04:44:13;102399.75;;;15.20;100.00
4449;BME280;2237;51.870;6.160;2023-09-30T04:46:39;102397.31;;;15.08;100.00
4449;BME280;2237;51.870;6.160;2023-09-30T04:49:15;102399.03;;;15.09;100.00
4449;BME280;2237;51.870;6.160;2023-09-30T04:51:41;102401.72;;;15.06;100.00
4449;BME280;2237;51.870;6.160;2023-09-30T04:54:08;102410.44;;;15.08;100.00
4449;BME280;2237;51.870;6.160;2023-09-30T04:56:35;102412.19;;;15.06;100.00
4449;BME280;2237;51.870;6.160;2023-09-30T04:59:02;102409.56;;;15.06;100.00
4449;BME280;2237;51.870;6.160;2023-09-30T05:01:30;102409.53;;;15.09;100.00
4449;BME280;2237;51.870;6.160;2023-09-30T05:03:56;102397.28;;;15.10;100.00
4449;BME280;2237;51.870;6.160;2023-09-30T05:06:24;102399.91;;;15.11;100.00
4449;BME280;2237;51.870;6.160;2023-09-30T05:08:50;102412.09;;;15.12;100.00
4449;BME280;2237;51.870;6.160;2023-09-30T05:11:17;102414.78;;;15.09;100.00
4449;BME280;2237;51.870;6.160;2023-09-30T05:13:43;102419.16;;;15.10;100.00
4449;BME280;2237;51.870;6.160;2023-09-30T05:16:10;102419.97;;;15.12;100.00
4449;BME280;2237;51.870;6.160;2023-09-30T05:18:36;102428.72;;;15.14;100.00
4449;BME280;2237;51.870;6.160;2023-09-30T05:21:04;102424.31;;;15.16;100.00
4449;BME280;2237;51.870;6.160;2023-09-30T05:23:31;102416.44;;;15.16;100.00
4449;BME280;2237;51.870;6.160;2023-09-30T05:25:58;102426.88;;;15.18;100.00
4449;BME280;2237;51.870;6.160;2023-09-30T05:28:25;102435.69;;;15.17;100.00
4449;BME280;2237;51.870;6.160;2023-09-30T05:30:52;102432.13;;;15.18;100.00
4449;BME280;2237;51.870;6.160;2023-09-30T05:33:19;102424.31;;;15.15;100.00
4449;BME280;2237;51.870;6.160;2023-09-30T05:35:46;102429.59;;;15.13;100.00
4449;BME280;2237;51.870;6.160;2023-09-30T05:38:13;102421.00;;;15.05;100.00
4449;BME280;2237;51.870;6.160;2023-09-30T05:40:40;102425.44;;;15.00;100.00
4449;BME280;2237;51.870;6.160;2023-09-30T05:43:07;102415.75;;;15.05;100.00
4449;BME280;2237;51.870;6.160;2023-09-30T05:45:34;102424.44;;;15.07;100.00
4449;BME280;2237;51.870;6.160;2023-09-30T05:48:04;102434.06;;;15.08;100.00
4449;BME280;2237;51.870;6.160;2023-09-30T05:50:34;102423.56;;;15.08;100.00
4449;BME280;2237;51.870;6.160;2023-09-30T05:53:02;102416.56;;;15.09;100.00
4449;BME280;2237;51.870;6.160;2023-09-30T05:55:31;102424.38;;;15.12;100.00
4449;BME280;2237;51.870;6.160;2023-09-30T05:57:57;102432.25;;;15.12;100.00
4449;BME280;2237;51.870;6.160;2023-09-30T06:00:25;102435.69;;;15.17;100.00
4449;BME280;2237;51.870;6.160;2023-09-30T06:02:57;102442.63;;;15.19;100.00
4449;BME280;2237;51.870;6.160;2023-09-30T06:05:24;102442.59;;;15.21;100.00
4449;BME280;2237;51.870;6.160;2023-09-30T06:07:52;102436.50;;;15.20;100.00
4449;BME280;2237;51.870;6.160;2023-09-30T06:10:20;102428.72;;;15.13;100.00
4449;BME280;2237;51.870;6.160;2023-09-30T06:12:50;102436.59;;;15.13;100.00
4449;BME280;2237;51.870;6.160;2023-09-30T06:15:22;102438.41;;;15.09;100.00
4449;BME280;2237;51.870;6.160;2023-09-30T06:17:52;102440.94;;;15.17;100.00
4449;BME280;2237;51.870;6.160;2023-09-30T06:20:20;102436.50;;;15.19;100.00
4449;BME280;2237;51.870;6.160;2023-09-30T06:22:48;102445.22;;;15.22;100.00
4449;BME280;2237;51.870;6.160;2023-09-30T06:25:16;102432.91;;;15.24;100.00
4449;BME280;2237;51.870;6.160;2023-09-30T06:27:44;102449.50;;;15.26;100.00
4449;BME280;2237;51.870;6.160;2023-09-30T06:30:11;102448.66;;;15.26;100.00
4449;BME280;2237;51.870;6.160;2023-09-30T06:32:38;102444.19;;;15.31;100.00
4449;BME280;2237;51.870;6.160;2023-09-30T06:35:04;102440.69;;;15.31;100.00
4449;BME280;2237;51.870;6.160;2023-09-30T06:37:32;102429.28;;;15.35;100.00
4449;BME280;2237;51.870;6.160;2023-09-30T06:39:59;102433.75;;;15.28;100.00
4449;BME280;2237;51.870;6.160;2023-09-30T06:42:26;102432.72;;;15.37;100.00
4449;BME280;2237;51.870;6.160;2023-09-30T06:44:53;102439.81;;;15.32;100.00
4449;BME280;2237;51.870;6.160;2023-09-30T06:47:19;102451.16;;;15.34;100.00
4449;BME280;2237;51.870;6.160;2023-09-30T06:49:47;102453.69;;;15.40;100.00
4449;BME280;2237;51.870;6.160;2023-09-30T06:52:14;102452.84;;;15.36;100.00
4449;BME280;2237;51.870;6.160;2023-09-30T06:54:40;102458.19;;;15.32;100.00
4449;BME280;2237;51.870;6.160;2023-09-30T06:57:07;102467.78;;;15.33;100.00
4449;BME280;2237;51.870;6.160;2023-09-30T06:59:34;102472.88;;;15.43;100.00
4449;BME280;2237;51.870;6.160;2023-09-30T07:02:00;102463.25;;;15.44;100.00
4449;BME280;2237;51.870;6.160;2023-09-30T07:04:29;102474.56;;;15.49;100.00
4449;BME280;2237;51.870;6.160;2023-09-30T07:06:56;102478.84;;;15.53;100.00
4449;BME280;2237;51.870;6.160;2023-09-30T07:09:22;102485.84;;;15.55;100.00
4449;BME280;2237;51.870;6.160;2023-09-30T07:11:49;102475.41;;;15.52;100.00
4449;BME280;2237;51.870;6.160;2023-09-30T07:14:15;102493.78;;;15.52;100.00
4449;BME280;2237;51.870;6.160;2023-09-30T07:16:42;102497.19;;;15.57;100.00
4449;BME280;2237;51.870;6.160;2023-09-30T07:19:09;102498.06;;;15.56;100.00
4449;BME280;2237;51.870;6.160;2023-09-30T07:21:36;102496.84;;;15.77;100.00
4449;BME280;2237;51.870;6.160;2023-09-30T07:24:04;102501.91;;;15.88;100.00
4449;BME280;2237;51.870;6.160;2023-09-30T07:26:32;102515.59;;;16.08;100.00
4449;BME280;2237;51.870;6.160;2023-09-30T07:28:59;102511.91;;;16.16;100.00
4449;BME280;2237;51.870;6.160;2023-09-30T07:31:26;102513.41;;;16.29;100.00
4449;BME280;2237;51.870;6.160;2023-09-30T07:33:52;102526.31;;;16.42;100.00
4449;BME280;2237;51.870;6.160;2023-09-30T07:36:19;102526.31;;;16.42;100.00
4449;BME280;2237;51.870;6.160;2023-09-30T07:38:46;102528.63;;;16.60;100.00
4449;BME280;2237;51.870;6.160;2023-09-30T07:41:13;102526.84;;;16.62;100.00
4449;BME280;2237;51.870;6.160;2023-09-30T07:43:40;102519.69;;;16.68;100.00
4449;BME280;2237;51.870;6.160;2023-09-30T07:46:06;102524.13;;;16.65;100.00
4449;BME280;2237;51.870;6.160;2023-09-30T07:48:34;102530.34;;;16.62;100.00
4449;BME280;2237;51.870;6.160;2023-09-30T07:51:01;102533.44;;;16.81;100.00
4449;BME280;2237;51.870;6.160;2023-09-30T07:53:28;102535.91;;;16.88;100.00
4449;BME280;2237;51.870;6.160;2023-09-30T07:55:55;102545.81;;;16.77;100.00
4449;BME280;2237;51.870;6.160;2023-09-30T07:58:22;102539.44;;;16.89;100.00
4449;BME280;2237;51.870;6.160;2023-09-30T08:00:48;102525.25;;;16.94;100.00
4449;BME280;2237;51.870;6.160;2023-09-30T08:03:15;102538.94;;;17.10;100.00
4449;BME280;2237;51.870;6.160;2023-09-30T08:05:42;102547.69;;;17.12;100.00
4449;BME280;2237;51.870;6.160;2023-09-30T08:08:08;102550.31;;;17.12;100.00
4449;BME280;2237;51.870;6.160;2023-09-30T08:10:35;102543.25;;;17.14;100.00
4449;BME280;2237;51.870;6.160;2023-09-30T08:13:03;102542.06;;;16.89;100.00
4449;BME280;2237;51.870;6.160;2023-09-30T08:15:30;102551.84;;;16.82;100.00
4449;BME280;2237;51.870;6.160;2023-09-30T08:17:57;102544.88;;;16.78;100.00
4449;BME280;2237;51.870;6.160;2023-09-30T08:20:23;102544.88;;;16.78;100.00
4449;BME280;2237;51.870;6.160;2023-09-30T08:22:50;102547.44;;;16.83;100.00
4449;BME280;2237;51.870;6.160;2023-09-30T08:25:16;102535.38;;;16.73;100.00
4449;BME280;2237;51.870;6.160;2023-09-30T08:27:43;102539.97;;;16.62;100.00
4449;BME280;2237;51.870;6.160;2023-09-30T08:30:11;102531.16;;;16.64;100.00
4449;BME280;2237;51.870;6.160;2023-09-30T08:32:38;102537.16;;;16.71;100.00
4449;BME280;2237;51.870;6.160;2023-09-30T08:35:05;102530.03;;;16.76;100.00
4449;BME280;2237;51.870;6.160;2023-09-30T08:37:31;102522.88;;;16.82;100.00
4449;BME280;2237;51.870;6.160;2023-09-30T08:39:59;102522.72;;;16.90;100.00
4449;BME280;2237;51.870;6.160;2023-09-30T08:42:26;102523.53;;;16.92;100.00
4449;BME280;2237;51.870;6.160;2023-09-30T08:44:59;102511.31;;;16.91;100.00
4449;BME280;2237;51.870;6.160;2023-09-30T08:47:26;102508.59;;;16.94;100.00
4449;BME280;2237;51.870;6.160;2023-09-30T08:49:56;102512.88;;;16.98;100.00
4449;BME280;2237;51.870;6.160;2023-09-30T08:52:32;102515.31;;;17.07;100.00
4449;BME280;2237;51.870;6.160;2023-09-30T08:55:04;102521.91;;;17.26;100.00
4449;BME280;2237;51.870;6.160;2023-09-30T08:57:33;102519.97;;;17.34;100.00
4449;BME280;2237;51.870;6.160;2023-09-30T09:00:06;102513.22;;;17.21;100.00
4449;BME280;2237;51.870;6.160;2023-09-30T09:02:36;102524.28;;;17.37;100.00
4449;BME280;2237;51.870;6.160;2023-09-30T09:05:02;102533.19;;;17.31;100.00
4449;BME280;2237;51.870;6.160;2023-09-30T09:07:29;102519.84;;;17.39;100.00
4449;BME280;2237;51.870;6.160;2023-09-30T09:10:07;102542.38;;;17.50;100.00
4449;BME280;2237;51.870;6.160;2023-09-30T09:12:36;102529.97;;;17.59;100.00
4449;BME280;2237;51.870;6.160;2023-09-30T09:15:05;102518.34;;;17.67;100.00
4449;BME280;2237;51.870;6.160;2023-09-30T09:17:45;102518.94;;;17.78;100.00
4449;BME280;2237;51.870;6.160;2023-09-30T09:20:17;102512.78;;;17.78;100.00
4449;BME280;2237;51.870;6.160;2023-09-30T09:22:49;102515.25;;;17.84;100.00
4449;BME280;2237;51.870;6.160;2023-09-30T09:25:17;102512.66;;;17.82;100.00
4449;BME280;2237;51.870;6.160;2023-09-30T09:27:44;102516.81;;;17.91;100.00
4449;BME280;2237;51.870;6.160;2023-09-30T09:30:24;102506.41;;;17.86;100.00
4449;BME280;2237;51.870;6.160;2023-09-30T09:35:24;102529.59;;;18.06;100.00
4449;BME280;2237;51.870;6.160;2023-09-30T09:38:02;102533.91;;;18.10;100.00
4449;BME280;2237;51.870;6.160;2023-09-30T09:43:00;102537.25;;;18.17;100.00
4449;BME280;2237;51.870;6.160;2023-09-30T09:45:35;102544.22;;;18.19;100.00
4449;BME280;2237;51.870;6.160;2023-09-30T09:48:04;102557.25;;;18.25;100.00
4449;BME280;2237;51.870;6.160;2023-09-30T09:50:32;102556.88;;;18.39;100.00
4449;BME280;2237;51.870;6.160;2023-09-30T09:52:58;102570.09;;;18.37;100.00
4449;BME280;2237;51.870;6.160;2023-09-30T09:55:27;102560.97;;;18.50;100.00
4449;BME280;2237;51.870;6.160;2023-09-30T09:57:54;102554.50;;;18.62;100.00
4449;BME280;2237;51.870;6.160;2023-09-30T10:00:24;102556.09;;;18.68;100.00
4449;BME280;2237;51.870;6.160;2023-09-30T10:02:51;102548.59;;;18.83;100.00
4449;BME280;2237;51.870;6.160;2023-09-30T10:05:19;102554.72;;;18.84;100.00
4449;BME280;2237;51.870;6.160;2023-09-30T10:07:53;102555.31;;;18.93;100.00
4449;BME280;2237;51.870;6.160;2023-09-30T10:10:21;102558.94;;;18.91;100.00
4449;BME280;2237;51.870;6.160;2023-09-30T10:12:48;102554.25;;;19.00;100.00
4449;BME280;2237;51.870;6.160;2023-09-30T10:18:04;102543.44;;;19.08;100.00
4449;BME280;2237;51.870;6.160;2023-09-30T10:20:38;102549.69;;;19.05;100.00
4449;BME280;2237;51.870;6.160;2023-09-30T10:23:23;102555.59;;;19.13;100.00
4449;BME280;2237;51.870;6.160;2023-09-30T10:28:40;102574.59;;;19.26;100.00
4449;BME280;2237;51.870;6.160;2023-09-30T10:31:16;102548.56;;;19.42;100.00
4449;BME280;2237;51.870;6.160;2023-09-30T10:38:56;102537.69;;;19.79;100.00
4449;BME280;2237;51.870;6.160;2023-09-30T10:46:57;102530.53;;;19.82;100.00
4449;BME280;2237;51.870;6.160;2023-09-30T10:51:51;102519.81;;;19.85;100.00
4449;BME280;2237;51.870;6.160;2023-09-30T10:54:23;102517.03;;;19.90;100.00
4449;BME280;2237;51.870;6.160;2023-09-30T10:56:49;102513.78;;;20.33;100.00
4449;BME280;2237;51.870;6.160;2023-09-30T10:59:20;102504.69;;;20.15;100.00
4449;BME280;2237;51.870;6.160;2023-09-30T11:01:46;102509.94;;;20.16;100.00
4449;BME280;2237;51.870;6.160;2023-09-30T11:04:13;102508.91;;;20.45;100.00
4449;BME280;2237;51.870;6.160;2023-09-30T11:06:41;102512.56;;;20.66;100.00
4449;BME280;2237;51.870;6.160;2023-09-30T11:09:08;102512.88;;;20.57;100.00
4449;BME280;2237;51.870;6.160;2023-09-30T11:11:41;102515.13;;;20.67;100.00
4449;BME280;2237;51.870;6.160;2023-09-30T11:14:27;102521.19;;;20.71;100.00
4449;BME280;2237;51.870;6.160;2023-09-30T11:16:57;102520.44;;;20.67;100.00
4449;BME280;2237;51.870;6.160;2023-09-30T11:19:25;102509.44;;;20.78;100.00
4449;BME280;2237;51.870;6.160;2023-09-30T11:21:54;102508.16;;;20.88;100.00
4449;BME280;2237;51.870;6.160;2023-09-30T11:24:21;102520.97;;;21.22;100.00
4449;BME280;2237;51.870;6.160;2023-09-30T11:26:52;102520.72;;;21.28;100.00
4449;BME280;2237;51.870;6.160;2023-09-30T11:29:19;102523.03;;;21.59;100.00
4449;BME280;2237;51.870;6.160;2023-09-30T11:31:48;102531.28;;;21.51;100.00
4449;BME280;2237;51.870;6.160;2023-09-30T11:34:17;102517.59;;;21.62;99.13
4449;BME280;2237;51.870;6.160;2023-09-30T11:36:50;102522.09;;;22.02;100.00
4449;BME280;2237;51.870;6.160;2023-09-30T11:39:28;102512.41;;;22.21;98.21
4449;BME280;2237;51.870;6.160;2023-09-30T11:41:56;102513.47;;;22.17;96.33
4449;BME280;2237;51.870;6.160;2023-09-30T11:44:24;102508.56;;;22.28;94.89
4449;BME280;2237;51.870;6.160;2023-09-30T11:46:56;102509.84;;;22.38;94.92
4449;BME280;2237;51.870;6.160;2023-09-30T11:52:08;102500.53;;;21.89;88.76
4449;BME280;2237;51.870;6.160;2023-09-30T11:54:39;102490.94;;;22.45;90.19
4449;BME280;2237;51.870;6.160;2023-09-30T11:57:14;102489.81;;;22.51;90.18
4449;BME280;2237;51.870;6.160;2023-09-30T11:59:45;102480.91;;;22.52;83.16
4449;BME280;2237;51.870;6.160;2023-09-30T12:02:13;102477.03;;;22.59;79.45
4449;BME280;2237;51.870;6.160;2023-09-30T12:04:42;102475.94;;;22.83;74.57
4449;BME280;2237;51.870;6.160;2023-09-30T12:07:10;102472.47;;;22.81;71.86
4449;BME280;2237;51.870;6.160;2023-09-30T12:09:37;102470.72;;;22.43;71.75
4449;BME280;2237;51.870;6.160;2023-09-30T12:12:06;102480.22;;;22.67;81.48
4449;BME280;2237;51.870;6.160;2023-09-30T12:14:36;102488.84;;;22.91;81.95
4449;BME280;2237;51.870;6.160;2023-09-30T12:17:02;102493.13;;;22.93;73.83
4449;BME280;2237;51.870;6.160;2023-09-30T12:19:29;102486.81;;;23.15;74.25
4449;BME280;2237;51.870;6.160;2023-09-30T12:21:56;102505.41;;;23.33;75.54
4449;BME280;2237;51.870;6.160;2023-09-30T12:24:22;102498.16;;;23.54;71.71
4449;BME280;2237;51.870;6.160;2023-09-30T12:26:51;102488.41;;;23.72;73.04
4449;BME280;2237;51.870;6.160;2023-09-30T12:29:19;102497.69;;;23.46;69.72
4449;BME280;2237;51.870;6.160;2023-09-30T12:31:53;102487.66;;;23.51;70.98
4449;BME280;2237;51.870;6.160;2023-09-30T12:34:21;102482.91;;;23.57;69.89
4449;BME280;2237;51.870;6.160;2023-09-30T12:36:53;102472.84;;;23.64;70.71
4449;BME280;2237;51.870;6.160;2023-09-30T12:39:19;102475.03;;;23.73;67.13
4449;BME280;2237;51.870;6.160;2023-09-30T12:41:51;102470.88;;;23.85;68.21
4449;BME280;2237;51.870;6.160;2023-09-30T12:44:18;102472.66;;;24.01;68.83
4449;BME280;2237;51.870;6.160;2023-09-30T12:46:45;102464.78;;;24.00;65.73
4449;BME280;2237;51.870;6.160;2023-09-30T12:49:12;102454.31;;;24.30;61.55
4449;BME280;2237;51.870;6.160;2023-09-30T12:51:38;102446.84;;;24.36;56.12
4449;BME280;2237;51.870;6.160;2023-09-30T12:54:05;102447.69;;;24.04;56.63
4449;BME280;2237;51.870;6.160;2023-09-30T12:56:32;102441.03;;;24.12;61.56
4449;BME280;2237;51.870;6.160;2023-09-30T12:58:59;102441.78;;;24.47;60.13
4449;BME280;2237;51.870;6.160;2023-09-30T13:01:26;102438.56;;;24.58;57.35
4449;BME280;2237;51.870;6.160;2023-09-30T13:03:55;102446.94;;;24.83;57.10
4449;BME280;2237;51.870;6.160;2023-09-30T13:06:22;102442.19;;;24.88;56.04
4449;BME280;2237;51.870;6.160;2023-09-30T13:08:48;102445.59;;;24.74;54.70
4449;BME280;2237;51.870;6.160;2023-09-30T13:11:15;102444.69;;;24.91;55.35
4449;BME280;2237;51.870;6.160;2023-09-30T13:13:41;102438.50;;;24.91;52.84
4449;BME280;2237;51.870;6.160;2023-09-30T13:16:10;102447.34;;;24.91;53.48
4449;BME280;2237;51.870;6.160;2023-09-30T13:18:38;102452.34;;;25.13;52.78
4449;BME280;2237;51.870;6.160;2023-09-30T13:21:04;102442.13;;;26.51;48.21
4449;BME280;2237;51.870;6.160;2023-09-30T13:23:32;102438.13;;;27.53;44.08
4449;BME280;2237;51.870;6.160;2023-09-30T13:25:59;102444.91;;;27.96;43.56
4449;BME280;2237;51.870;6.160;2023-09-30T13:28:26;102438.00;;;29.51;39.48
4449;BME280;2237;51.870;6.160;2023-09-30T13:30:54;102436.34;;;31.58;35.87
4449;BME280;2237;51.870;6.160;2023-09-30T13:33:20;102438.25;;;32.98;33.74